createdAt,value
2024-01-20T00:00:14.529Z,-2.86
2024-01-20T00:02:41.132Z,-2.97
2024-01-20T00:05:08.580Z,-2.88
2024-01-20T00:07:35.393Z,-2.92
2024-01-20T00:10:02.424Z,-3.04
2024-01-20T00:12:31.519Z,-2.98
2024-01-20T00:14:58.219Z,-3.21
2024-01-20T00:17:27.742Z,-2.93
2024-01-20T00:19:56.170Z,-2.95
2024-01-20T00:22:23.896Z,-3.29
2024-01-20T00:24:51.155Z,-2.87
2024-01-20T00:27:18.737Z,-2.87
2024-01-20T00:29:46.650Z,-2.88
2024-01-20T00:32:13.900Z,-2.86
2024-01-20T00:34:51.477Z,-2.90
2024-01-20T00:37:26.774Z,-2.95
2024-01-20T00:39:53.314Z,-3.18
2024-01-20T00:42:19.779Z,-2.88
2024-01-20T00:44:46.457Z,-2.83
2024-01-20T00:47:13.083Z,-2.85
2024-01-20T00:49:39.872Z,-2.92
2024-01-20T00:52:06.808Z,-2.98
2024-01-20T00:54:33.435Z,-2.93
2024-01-20T00:56:59.955Z,-2.93
2024-01-20T00:59:26.441Z,-2.95
2024-01-20T01:01:53.016Z,-2.96
2024-01-20T01:04:19.530Z,-2.99
2024-01-20T01:06:46.016Z,-2.96
2024-01-20T01:09:12.602Z,-3.21
2024-01-20T01:11:39.153Z,-2.99
2024-01-20T01:14:05.711Z,-3.22
2024-01-20T01:16:32.235Z,-2.98
2024-01-20T01:18:59.002Z,-3.10
2024-01-20T01:21:25.475Z,-2.95
2024-01-20T01:23:52.017Z,-2.82
2024-01-20T01:26:18.992Z,-2.76
2024-01-20T01:28:45.853Z,-2.73
2024-01-20T01:31:12.780Z,-2.80
2024-01-20T01:33:39.356Z,-2.88
2024-01-20T01:36:06.555Z,-2.86
2024-01-20T01:38:33.358Z,-2.89
2024-01-20T01:41:00.181Z,-2.92
2024-01-20T01:43:26.795Z,-2.96
2024-01-20T01:45:53.459Z,-2.98
2024-01-20T01:48:20.555Z,-3.01
2024-01-20T01:50:48.086Z,-3.03
2024-01-20T01:53:15.303Z,-3.07
2024-01-20T01:55:44.845Z,-3.08
2024-01-20T01:58:11.362Z,-3.20
2024-01-20T02:00:38.450Z,-3.17
2024-01-20T02:03:05.681Z,-3.10
2024-01-20T02:05:32.376Z,-3.23
2024-01-20T02:07:59.867Z,-3.02
2024-01-20T02:10:26.438Z,-3.02
2024-01-20T02:12:53.580Z,-3.02
2024-01-20T02:15:20.275Z,-3.02
2024-01-20T02:17:53.980Z,-3.18
2024-01-20T02:20:20.969Z,-2.95
2024-01-20T02:22:47.910Z,-3.12
2024-01-20T02:25:14.453Z,-2.92
2024-01-20T02:27:41.035Z,-3.08
2024-01-20T02:30:08.447Z,-2.87
2024-01-20T02:32:35.127Z,-2.86
2024-01-20T02:35:01.844Z,-2.83
2024-01-20T02:37:28.436Z,-2.82
2024-01-20T02:39:54.921Z,-2.78
2024-01-20T02:42:21.532Z,-2.78
2024-01-20T02:44:48.181Z,-2.98
2024-01-20T02:47:14.877Z,-2.81
2024-01-20T02:49:41.566Z,-2.74
2024-01-20T02:52:08.370Z,-2.83
2024-01-20T02:54:35.015Z,-2.84
2024-01-20T02:57:01.651Z,-2.87
2024-01-20T02:59:28.197Z,-2.92
2024-01-20T03:01:54.803Z,-2.96
2024-01-20T03:04:21.407Z,-2.98
2024-01-20T03:06:48.139Z,-3.05
2024-01-20T03:09:15.959Z,-3.03
2024-01-20T03:11:45.483Z,-3.26
2024-01-20T03:14:12.184Z,-3.28
2024-01-20T03:16:39.509Z,-3.27
2024-01-20T03:19:07.545Z,-3.13
2024-01-20T03:21:35.392Z,-3.13
2024-01-20T03:24:02.229Z,-3.17
2024-01-20T03:26:29.057Z,-3.18
2024-01-20T03:28:55.569Z,-3.16
2024-01-20T03:31:22.153Z,-3.07
2024-01-20T03:33:48.731Z,-3.02
2024-01-20T03:36:15.395Z,-3.01
2024-01-20T03:38:41.910Z,-2.98
2024-01-20T03:41:08.512Z,-2.95
2024-01-20T03:43:35.033Z,-3.02
2024-01-20T03:46:01.577Z,-2.95
2024-01-20T03:48:28.148Z,-3.08
2024-01-20T03:50:54.742Z,-2.88
2024-01-20T03:53:21.335Z,-3.00
2024-01-20T03:55:47.838Z,-2.80
2024-01-20T03:58:14.309Z,-2.98
2024-01-20T04:00:40.934Z,-2.85
2024-01-20T04:03:07.574Z,-3.08
2024-01-20T04:05:34.196Z,-3.11
2024-01-20T04:08:00.734Z,-2.95
2024-01-20T04:10:27.328Z,-2.97
2024-01-20T04:12:53.844Z,-3.10
2024-01-20T04:15:20.367Z,-3.14
2024-01-20T04:17:47.135Z,-3.18
2024-01-20T04:20:13.689Z,-3.22
2024-01-20T04:22:40.224Z,-3.33
2024-01-20T04:25:07.342Z,-3.34
2024-01-20T04:27:35.208Z,-3.42
2024-01-20T04:30:01.889Z,-3.48
2024-01-20T04:32:28.639Z,-3.71
2024-01-20T04:34:55.094Z,-3.51
2024-01-20T04:37:21.660Z,-3.49
2024-01-20T04:39:48.409Z,-3.52
2024-01-20T04:42:14.962Z,-3.40
2024-01-20T04:44:41.447Z,-3.33
2024-01-20T04:47:07.954Z,-3.31
2024-01-20T04:49:34.693Z,-3.49
2024-01-20T04:52:03.191Z,-3.35
2024-01-20T04:54:30.125Z,-3.40
2024-01-20T04:56:58.491Z,-3.62
2024-01-20T04:59:25.690Z,-3.49
2024-01-20T05:01:53.924Z,-3.58
2024-01-20T05:04:20.617Z,-3.56
2024-01-20T05:06:47.400Z,-3.60
2024-01-20T05:09:14.819Z,-3.56
2024-01-20T05:11:41.538Z,-3.52
2024-01-20T05:14:08.859Z,-3.52
2024-01-20T05:16:35.522Z,-3.53
2024-01-20T05:19:02.723Z,-3.55
2024-01-20T05:21:29.475Z,-3.60
2024-01-20T05:23:58.086Z,-3.64
2024-01-20T05:26:24.954Z,-3.61
2024-01-20T05:28:51.497Z,-3.52
2024-01-20T05:31:18.249Z,-3.81
2024-01-20T05:33:44.953Z,-3.45
2024-01-20T05:36:13.889Z,-3.52
2024-01-20T05:38:40.430Z,-3.59
2024-01-20T05:41:08.747Z,-3.65
2024-01-20T05:43:35.490Z,-3.68
2024-01-20T05:46:06.494Z,-3.75
2024-01-20T05:48:34.052Z,-3.71
2024-01-20T05:51:00.713Z,-3.73
2024-01-20T05:53:27.757Z,-3.75
2024-01-20T05:55:54.207Z,-3.71
2024-01-20T05:58:20.687Z,-3.69
2024-01-20T06:00:47.251Z,-3.65
2024-01-20T06:03:13.779Z,-3.82
2024-01-20T06:05:40.311Z,-3.65
2024-01-20T06:08:07.041Z,-3.74
2024-01-20T06:10:33.520Z,-3.70
2024-01-20T06:13:00.071Z,-3.67
2024-01-20T06:15:26.691Z,-3.72
2024-01-20T06:17:53.357Z,-3.73
2024-01-20T06:20:20.751Z,-3.75
2024-01-20T06:22:47.360Z,-3.73
2024-01-20T06:25:14.312Z,-3.80
2024-01-20T06:27:46.355Z,-3.76
2024-01-20T06:30:15.753Z,-3.95
2024-01-20T06:32:42.308Z,-3.74
2024-01-20T06:35:09.752Z,-3.65
2024-01-20T06:37:36.490Z,-3.81
2024-01-20T06:40:03.374Z,-3.58
2024-01-20T06:42:30.040Z,-3.61
2024-01-20T06:44:58.039Z,-3.75
2024-01-20T06:47:27.301Z,-3.55
2024-01-20T06:49:54.863Z,-3.51
2024-01-20T06:52:21.880Z,-3.43
2024-01-20T06:54:49.332Z,-3.38
2024-01-20T06:57:15.890Z,-3.47
2024-01-20T06:59:42.444Z,-3.25
2024-01-20T07:02:09.695Z,-3.36
2024-01-20T07:04:36.338Z,-3.23
2024-01-20T07:07:03.008Z,-3.04
2024-01-20T07:09:29.582Z,-2.99
2024-01-20T07:11:58.918Z,-2.87
2024-01-20T07:14:26.355Z,-2.87
2024-01-20T07:16:52.913Z,-2.83
2024-01-20T07:19:19.434Z,-2.81
2024-01-20T07:21:45.949Z,-3.13
2024-01-20T07:24:12.598Z,-2.78
2024-01-20T07:26:39.154Z,-2.77
2024-01-20T07:29:05.697Z,-2.91
2024-01-20T07:31:32.272Z,-2.68
2024-01-20T07:33:59.493Z,-2.65
2024-01-20T07:36:26.208Z,-2.61
2024-01-20T07:38:52.787Z,-2.62
2024-01-20T07:41:19.534Z,-2.64
2024-01-20T07:43:46.108Z,-2.64
2024-01-20T07:46:13.353Z,-2.56
2024-01-20T07:48:40.178Z,-2.64
2024-01-20T07:51:06.769Z,-2.51
2024-01-20T07:53:33.300Z,-2.51
2024-01-20T07:55:59.833Z,-2.42
2024-01-20T07:58:26.349Z,-2.39
2024-01-20T08:00:52.995Z,-2.55
2024-01-20T08:03:19.571Z,-2.44
2024-01-20T08:05:47.031Z,-2.34
2024-01-20T08:08:13.736Z,-2.33
2024-01-20T08:10:40.492Z,-2.27
2024-01-20T08:13:07.155Z,-2.22
2024-01-20T08:15:33.758Z,-2.30
2024-01-20T08:18:00.617Z,-2.11
2024-01-20T08:20:27.304Z,-2.07
2024-01-20T08:22:53.835Z,-2.07
2024-01-20T08:25:20.403Z,-2.03
2024-01-20T08:27:46.994Z,-2.00
2024-01-20T08:30:14.043Z,-2.49
2024-01-20T08:32:41.609Z,-1.93
2024-01-20T08:35:09.864Z,-1.94
2024-01-20T08:37:36.413Z,-1.89
2024-01-20T08:40:03.683Z,-1.81
2024-01-20T08:42:30.336Z,-1.76
2024-01-20T08:44:56.987Z,-1.76
2024-01-20T08:47:23.531Z,-1.65
2024-01-20T08:49:52.922Z,-1.66
2024-01-20T08:52:20.107Z,-1.55
2024-01-20T08:54:46.888Z,-1.53
2024-01-20T08:57:13.652Z,-1.55
2024-01-20T08:59:40.180Z,-1.47
2024-01-20T09:02:07.102Z,-1.40
2024-01-20T09:04:33.707Z,-1.39
2024-01-20T09:07:00.319Z,-1.46
2024-01-20T09:09:26.902Z,-1.32
2024-01-20T09:11:53.432Z,-1.24
2024-01-20T09:14:19.939Z,-1.15
2024-01-20T09:16:46.600Z,-1.09
2024-01-20T09:19:13.232Z,-1.03
2024-01-20T09:21:39.838Z,-1.10
2024-01-20T09:24:06.623Z,-0.94
2024-01-20T09:26:33.177Z,-0.82
2024-01-20T09:28:59.726Z,-0.85
2024-01-20T09:31:26.236Z,-0.73
2024-01-20T09:33:52.919Z,-0.71
2024-01-20T09:36:19.521Z,-0.60
2024-01-20T09:38:46.060Z,-0.60
2024-01-20T09:41:12.942Z,-0.61
2024-01-20T09:43:40.462Z,-0.91
2024-01-20T09:46:08.008Z,-0.42
2024-01-20T09:48:34.635Z,-0.57
2024-01-20T09:51:01.307Z,-0.40
2024-01-20T09:53:28.447Z,-0.36
2024-01-20T09:55:56.359Z,-0.31
2024-01-20T09:58:23.107Z,-0.30
2024-01-20T10:00:50.878Z,-0.31
2024-01-20T10:03:18.589Z,-0.29
2024-01-20T10:05:45.258Z,-0.18
2024-01-20T10:08:12.308Z,-0.09
2024-01-20T10:10:38.882Z,-0.27
2024-01-20T10:13:05.433Z,-0.06
2024-01-20T10:15:34.494Z,-0.08
2024-01-20T10:18:09.558Z,0.06
2024-01-20T10:20:37.643Z,-0.11
2024-01-20T10:23:06.633Z,0.14
2024-01-20T10:25:33.518Z,0.12
2024-01-20T10:28:00.530Z,0.13
2024-01-20T10:30:27.816Z,0.14
2024-01-20T10:33:04.509Z,0.13
2024-01-20T10:35:36.599Z,0.20
2024-01-20T10:38:09.958Z,0.21
2024-01-20T10:40:40.007Z,0.26
2024-01-20T10:43:14.363Z,0.38
2024-01-20T10:45:51.718Z,0.38
2024-01-20T10:48:27.029Z,0.35
2024-01-20T10:50:58.435Z,0.44
2024-01-20T10:53:31.986Z,0.54
2024-01-20T10:55:59.555Z,0.14
2024-01-20T10:58:34.685Z,0.70
2024-01-20T11:01:01.524Z,0.64
2024-01-20T11:03:29.220Z,0.54
2024-01-20T11:05:55.839Z,0.53
2024-01-20T11:08:27.142Z,0.62
2024-01-20T11:10:55.552Z,0.58
2024-01-20T11:13:27.338Z,0.58
2024-01-20T11:15:54.179Z,0.49
2024-01-20T11:18:22.560Z,0.61
2024-01-20T11:21:02.684Z,0.79
2024-01-20T11:23:30.069Z,0.83
2024-01-20T11:25:58.370Z,0.80
2024-01-20T11:28:31.931Z,0.73
2024-01-20T11:30:59.220Z,0.73
2024-01-20T11:33:26.240Z,0.89
2024-01-20T11:35:53.974Z,0.85
2024-01-20T11:38:21.461Z,0.92
2024-01-20T11:41:00.958Z,0.97
2024-01-20T11:43:27.901Z,1.05
2024-01-20T11:45:56.058Z,0.90
2024-01-20T11:48:23.134Z,0.99
2024-01-20T11:50:50.796Z,0.98
2024-01-20T11:53:17.708Z,1.02
2024-01-20T11:55:59.804Z,1.08
2024-01-20T11:58:27.913Z,1.13
2024-01-20T12:00:56.405Z,1.20
2024-01-20T12:03:23.402Z,0.98
2024-01-20T12:05:51.326Z,1.15
2024-01-20T12:08:18.889Z,1.16
2024-01-20T12:10:48.849Z,1.17
2024-01-20T12:13:17.533Z,1.15
2024-01-20T12:15:45.041Z,1.19
2024-01-20T12:18:11.801Z,1.13
2024-01-20T12:20:38.893Z,1.15
2024-01-20T12:23:05.660Z,0.97
2024-01-20T12:25:33.211Z,1.15
2024-01-20T12:28:00.304Z,1.00
2024-01-20T12:30:27.955Z,1.07
2024-01-20T12:32:54.519Z,1.16
2024-01-20T12:35:21.189Z,1.14
2024-01-20T12:37:49.967Z,1.10
2024-01-20T12:40:16.972Z,1.07
2024-01-20T12:42:43.859Z,1.20
2024-01-20T12:45:12.162Z,1.13
2024-01-20T12:47:39.462Z,1.03
2024-01-20T12:50:06.566Z,1.23
2024-01-20T12:52:33.451Z,1.19
2024-01-20T12:55:00.527Z,1.19
2024-01-20T12:57:27.060Z,1.18
2024-01-20T12:59:53.669Z,1.16
2024-01-20T13:02:20.281Z,1.13
2024-01-20T13:04:46.972Z,0.95
2024-01-20T13:07:15.248Z,1.19
2024-01-20T13:09:42.552Z,1.18
2024-01-20T13:12:09.693Z,1.16
2024-01-20T13:14:36.648Z,1.16
2024-01-20T13:17:04.046Z,1.24
2024-01-20T13:19:31.112Z,1.21
2024-01-20T13:21:57.808Z,1.30
2024-01-20T13:24:24.488Z,1.26
2024-01-20T13:26:51.262Z,1.10
2024-01-20T13:29:17.979Z,1.17
2024-01-20T13:31:44.527Z,0.92
2024-01-20T13:34:11.516Z,0.98
2024-01-20T13:36:38.216Z,1.09
2024-01-20T13:39:06.282Z,1.17
2024-01-20T13:41:34.766Z,1.21
2024-01-20T13:44:01.257Z,1.01
2024-01-20T13:46:27.781Z,1.21
2024-01-20T13:48:54.463Z,1.22
2024-01-20T13:51:22.975Z,1.22
2024-01-20T13:53:49.649Z,1.12
2024-01-20T13:56:16.192Z,1.18
2024-01-20T13:58:42.681Z,1.11
2024-01-20T14:01:09.541Z,1.15
2024-01-20T14:03:36.332Z,1.15
2024-01-20T14:06:04.054Z,1.13
2024-01-20T14:08:30.764Z,1.05
2024-01-20T14:10:57.413Z,1.07
2024-01-20T14:13:23.907Z,0.89
2024-01-20T14:15:50.652Z,1.07
2024-01-20T14:18:17.418Z,0.95
2024-01-20T14:20:44.061Z,1.00
2024-01-20T14:23:10.616Z,0.98
2024-01-20T14:25:37.170Z,0.88
2024-01-20T14:28:05.189Z,0.79
2024-01-20T14:30:31.926Z,0.78
2024-01-20T14:32:58.560Z,0.68
2024-01-20T14:35:27.047Z,0.67
2024-01-20T14:37:54.514Z,0.59
2024-01-20T14:40:21.415Z,0.42
2024-01-20T14:42:48.285Z,0.52
2024-01-20T14:45:15.333Z,0.52
2024-01-20T14:47:41.979Z,0.28
2024-01-20T14:50:09.255Z,0.35
2024-01-20T14:52:35.825Z,0.36
2024-01-20T14:55:02.602Z,0.27
2024-01-20T14:57:29.209Z,0.26
2024-01-20T14:59:55.713Z,0.06
2024-01-20T15:02:22.235Z,0.19
2024-01-20T15:04:48.888Z,0.08
2024-01-20T15:07:15.442Z,-0.02
2024-01-20T15:09:42.528Z,-0.19
2024-01-20T15:12:09.472Z,-0.04
2024-01-20T15:14:36.194Z,-0.16
2024-01-20T15:17:02.705Z,-0.22
2024-01-20T15:19:29.449Z,-0.33
2024-01-20T15:21:56.137Z,-0.28
2024-01-20T15:24:22.724Z,-0.50
2024-01-20T15:26:49.225Z,-0.37
2024-01-20T15:29:15.750Z,-0.41
2024-01-20T15:31:42.262Z,-0.54
2024-01-20T15:34:08.969Z,-0.58
2024-01-20T15:36:35.635Z,-0.83
2024-01-20T15:39:02.272Z,-0.74
2024-01-20T15:41:28.989Z,-0.86
2024-01-20T15:43:55.580Z,-0.59
2024-01-20T15:46:22.107Z,-0.53
2024-01-20T15:48:48.794Z,-0.62
2024-01-20T15:51:15.635Z,-0.73
2024-01-20T15:53:42.382Z,-1.02
2024-01-20T15:56:11.374Z,-0.83
2024-01-20T15:58:42.333Z,-0.82
2024-01-20T16:01:09.192Z,-0.91
2024-01-20T16:03:35.843Z,-1.36
2024-01-20T16:06:02.630Z,-1.00
2024-01-20T16:08:29.290Z,-1.10
2024-01-20T16:10:55.905Z,-1.03
2024-01-20T16:13:22.507Z,-1.18
2024-01-20T16:15:49.090Z,-0.93
2024-01-20T16:18:16.472Z,-0.98
2024-01-20T16:20:43.062Z,-1.04
2024-01-20T16:23:10.559Z,-1.10
2024-01-20T16:25:37.118Z,-1.23
2024-01-20T16:28:03.807Z,-1.28
2024-01-20T16:30:30.609Z,-1.20
2024-01-20T16:32:57.243Z,-1.20
2024-01-20T16:35:23.720Z,-1.17
2024-01-20T16:37:50.395Z,-1.07
2024-01-20T16:40:16.924Z,-1.07
2024-01-20T16:42:43.578Z,-1.06
2024-01-20T16:45:10.563Z,-1.14
2024-01-20T16:47:37.256Z,-1.04
2024-01-20T16:50:04.221Z,-1.16
2024-01-20T16:52:30.962Z,-1.07
2024-01-20T16:54:57.486Z,-1.04
2024-01-20T16:57:40.446Z,-1.05
2024-01-20T17:00:09.316Z,-0.95
2024-01-20T17:02:36.255Z,-1.07
2024-01-20T17:05:03.052Z,-1.06
2024-01-20T17:07:29.624Z,-1.14
2024-01-20T17:09:56.156Z,-1.07
2024-01-20T17:12:23.828Z,-1.07
2024-01-20T17:14:50.376Z,-1.24
2024-01-20T17:17:16.966Z,-1.04
2024-01-20T17:19:43.605Z,-1.30
2024-01-20T17:22:10.186Z,-1.17
2024-01-20T17:24:38.490Z,-1.16
2024-01-20T17:27:05.522Z,-1.25
2024-01-20T17:29:33.184Z,-1.27
2024-01-20T17:32:02.716Z,-1.47
2024-01-20T17:34:29.730Z,-1.48
2024-01-20T17:36:56.867Z,-1.34
2024-01-20T17:39:25.676Z,-1.28
2024-01-20T17:41:58.928Z,-1.30
2024-01-20T17:44:25.603Z,-1.33
2024-01-20T17:46:52.152Z,-1.18
2024-01-20T17:49:18.762Z,-1.23
2024-01-20T17:51:45.572Z,-1.25
2024-01-20T17:54:12.340Z,-1.25
2024-01-20T17:56:39.403Z,-1.27
2024-01-20T17:59:05.867Z,-1.28
2024-01-20T18:01:32.982Z,-1.31
2024-01-20T18:03:59.749Z,-1.34
2024-01-20T18:06:27.100Z,-1.31
2024-01-20T18:08:53.689Z,-1.46
2024-01-20T18:11:20.234Z,-1.25
2024-01-20T18:13:46.768Z,-1.30
2024-01-20T18:16:13.375Z,-1.45
2024-01-20T18:18:39.922Z,-1.29
2024-01-20T18:21:07.450Z,-1.29
2024-01-20T18:23:33.982Z,-1.34
2024-01-20T18:26:00.612Z,-1.35
2024-01-20T18:28:27.892Z,-1.55
2024-01-20T18:30:54.749Z,-1.41
2024-01-20T18:33:22.497Z,-1.25
2024-01-20T18:35:49.113Z,-1.23
2024-01-20T18:38:16.722Z,-1.24
2024-01-20T18:40:43.302Z,-1.18
2024-01-20T18:43:10.173Z,-1.32
2024-01-20T18:45:36.723Z,-1.29
2024-01-20T18:48:03.654Z,-1.46
2024-01-20T18:50:30.712Z,-1.21
2024-01-20T18:52:57.775Z,-1.14
2024-01-20T18:55:24.352Z,-1.07
2024-01-20T18:57:53.419Z,-1.07
2024-01-20T19:00:20.011Z,-1.08
2024-01-20T19:02:46.587Z,-1.41
2024-01-20T19:05:13.514Z,-1.12
2024-01-20T19:07:40.072Z,-0.95
2024-01-20T19:10:10.774Z,-0.94
2024-01-20T19:12:38.504Z,-0.98
2024-01-20T19:15:09.181Z,-0.93
2024-01-20T19:17:36.284Z,-0.96
2024-01-20T19:20:02.861Z,-1.01
2024-01-20T19:22:29.592Z,-1.04
2024-01-20T19:24:57.122Z,-1.09
2024-01-20T19:27:23.766Z,-1.03
2024-01-20T19:29:50.333Z,-1.10
2024-01-20T19:32:17.713Z,-1.18
2024-01-20T19:34:45.281Z,-1.22
2024-01-20T19:37:12.227Z,-1.31
2024-01-20T19:39:39.183Z,-1.49
2024-01-20T19:42:05.827Z,-1.46
2024-01-20T19:44:32.297Z,-1.40
2024-01-20T19:46:58.787Z,-1.52
2024-01-20T19:49:25.762Z,-1.39
2024-01-20T19:51:52.576Z,-1.50
2024-01-20T19:54:19.115Z,-1.55
2024-01-20T19:56:46.785Z,-1.47
2024-01-20T19:59:14.774Z,-1.47
2024-01-20T20:01:50.576Z,-1.73
2024-01-20T20:04:18.611Z,-1.60
2024-01-20T20:06:46.373Z,-1.62
2024-01-20T20:09:13.722Z,-1.62
2024-01-20T20:11:41.169Z,-1.59
2024-01-20T20:14:11.931Z,-1.64
2024-01-20T20:16:41.160Z,-1.74
2024-01-20T20:19:08.521Z,-1.83
2024-01-20T20:21:35.236Z,-1.87
2024-01-20T20:24:01.757Z,-2.09
2024-01-20T20:26:28.423Z,-1.98
2024-01-20T20:28:54.902Z,-2.31
2024-01-20T20:31:23.449Z,-2.12
2024-01-20T20:33:51.225Z,-2.11
2024-01-20T20:36:20.312Z,-2.06
2024-01-20T20:38:47.337Z,-2.02
2024-01-20T20:41:13.841Z,-2.04
2024-01-20T20:43:40.342Z,-1.99
2024-01-20T20:46:07.095Z,-1.97
2024-01-20T20:48:33.728Z,-2.17
2024-01-20T20:51:00.254Z,-1.97
2024-01-20T20:53:26.947Z,-1.96
2024-01-20T20:55:53.523Z,-1.94
2024-01-20T20:58:20.097Z,-1.92
2024-01-20T21:00:46.623Z,-2.02
2024-01-20T21:03:13.739Z,-1.96
2024-01-20T21:05:40.633Z,-2.01
2024-01-20T21:08:07.494Z,-2.10
2024-01-20T21:10:34.108Z,-2.14
2024-01-20T21:13:00.823Z,-2.16
2024-01-20T21:15:27.636Z,-2.16
2024-01-20T21:17:54.398Z,-2.33
2024-01-20T21:20:21.217Z,-2.18
2024-01-20T21:22:47.875Z,-2.21
2024-01-20T21:25:14.823Z,-2.18
2024-01-20T21:27:41.642Z,-2.28
2024-01-20T21:30:08.870Z,-2.27
2024-01-20T21:32:35.599Z,-2.08
2024-01-20T21:35:02.801Z,-2.07
2024-01-20T21:37:29.410Z,-2.18
2024-01-20T21:39:55.942Z,-2.25
2024-01-20T21:42:22.481Z,-2.60
2024-01-20T21:44:49.427Z,-2.48
2024-01-20T21:47:15.918Z,-2.26
2024-01-20T21:49:42.465Z,-2.32
2024-01-20T21:52:09.001Z,-2.38
2024-01-20T21:54:35.752Z,-2.40
2024-01-20T21:57:02.295Z,-2.43
2024-01-20T21:59:28.883Z,-2.72
2024-01-20T22:01:55.416Z,-2.56
2024-01-20T22:04:22.205Z,-2.62
2024-01-20T22:06:51.031Z,-2.70
2024-01-20T22:09:17.801Z,-2.85
2024-01-20T22:11:44.340Z,-2.98
2024-01-20T22:14:10.864Z,-3.12
2024-01-20T22:16:37.380Z,-3.48
2024-01-20T22:19:04.002Z,-3.30
2024-01-20T22:21:30.873Z,-3.43
2024-01-20T22:23:57.486Z,-3.23
2024-01-20T22:26:23.956Z,-3.23
2024-01-20T22:28:50.477Z,-3.37
2024-01-20T22:31:17.183Z,-3.32
2024-01-20T22:33:43.901Z,-3.38
2024-01-20T22:36:10.449Z,-3.21
2024-01-20T22:38:37.417Z,-3.13
2024-01-20T22:41:06.132Z,-3.09
2024-01-20T22:43:32.732Z,-2.93
2024-01-20T22:45:59.303Z,-2.95
2024-01-20T22:48:26.124Z,-2.96
2024-01-20T22:50:52.786Z,-2.89
2024-01-20T22:53:19.291Z,-2.94
2024-01-20T22:55:45.830Z,-2.78
2024-01-20T22:58:12.408Z,-2.82
2024-01-20T23:00:40.100Z,-3.09
2024-01-20T23:03:06.855Z,-2.94
2024-01-20T23:05:33.529Z,-2.98
2024-01-20T23:08:00.111Z,-2.84
2024-01-20T23:10:27.423Z,-2.73
2024-01-20T23:12:54.038Z,-2.74
2024-01-20T23:15:20.738Z,-2.71
2024-01-20T23:17:47.286Z,-2.84
2024-01-20T23:20:15.820Z,-2.82
2024-01-20T23:22:42.611Z,-3.09
2024-01-20T23:25:10.466Z,-2.94
2024-01-20T23:27:37.445Z,-2.94
2024-01-20T23:30:04.430Z,-3.03
2024-01-20T23:32:31.169Z,-3.05
2024-01-20T23:34:57.876Z,-3.01
2024-01-20T23:37:24.799Z,-3.04
2024-01-20T23:39:51.353Z,-3.12
2024-01-20T23:42:17.965Z,-3.24
2024-01-20T23:44:44.504Z,-3.29
2024-01-20T23:47:11.005Z,-3.41
2024-01-20T23:49:37.760Z,-3.51
2024-01-20T23:52:05.002Z,-3.56
2024-01-20T23:54:31.538Z,-3.77
2024-01-20T23:56:58.062Z,-3.65
2024-01-20T23:59:24.523Z,-3.69
